Time;durP1;ratioP1;P1;durP2;ratioP2;P2;SDS_P1;SDS_P2;PMS_P1;PMS_P2;Temp;Humidity;BMP_temperature;BMP_pressure;BME280_temperature;BME280_humidity;BME280_pressure;Samples;Min_cycle;Max_cycle;Signal;HPM_P1;HPM_P2
2023/09/07 00:01:54;;;;;;;0.15;0.15;;;17.60;99.90;;;;;;5130092;27;20035;-74
2023/09/07 00:04:21;;;;;;;0.55;0.32;;;17.60;99.90;;;;;;5136299;27;20046;-75
2023/09/07 00:06:46;;;;;;;0.10;0.10;;;17.80;48.10;;;;;;5126757;27;20051;-74
2023/09/07 00:09:13;;;;;;;0.28;0.22;;;17.80;1.00;;;;;;5126974;27;20051;-75
2023/09/07 00:11:38;;;;;;;0.43;0.32;;;17.70;1.00;;;;;;5127573;27;20040;-75
2023/09/07 00:14:04;;;;;;;0.98;0.50;;;17.60;51.00;;;;;;5131819;27;20046;-75
2023/09/07 00:16:38;;;;;;;0.35;0.22;;;17.60;99.90;;;;;;5126799;27;20499;-75
2023/09/07 00:19:06;;;;;;;0.55;0.10;;;17.70;99.90;;;;;;5118015;27;20114;-75
2023/09/07 00:21:32;;;;;;;0.15;0.15;;;17.40;99.90;;;;;;5126459;27;20062;-75
2023/09/07 00:23:58;;;;;;;0.35;0.22;;;17.30;99.90;;;;;;5127684;27;20488;-75
2023/09/07 00:26:23;;;;;;;0.40;0.30;;;17.30;99.90;;;;;;5126827;27;20085;-73
2023/09/07 00:28:49;;;;;;;0.10;0.10;;;17.30;99.90;;;;;;5126894;27;20540;-72
2023/09/07 00:31:15;;;;;;;0.45;0.20;;;17.20;99.90;;;;;;5120871;27;20053;-72
2023/09/07 00:33:40;;;;;;;0.08;0.08;;;17.10;99.90;;;;;;5121423;27;20035;-73
2023/09/07 00:36:06;;;;;;;0.08;0.08;;;17.10;1.00;;;;;;5122242;27;20029;-74
2023/09/07 00:38:32;;;;;;;2.63;0.82;;;17.00;99.90;;;;;;5128170;27;20043;-74
2023/09/07 00:40:57;;;;;;;0.30;0.30;;;17.00;99.90;;;;;;5121095;27;20485;-74
2023/09/07 00:43:23;;;;;;;0.43;0.30;;;16.90;1.00;;;;;;5130827;27;20078;-74
2023/09/07 00:45:49;;;;;;;6.53;1.20;;;16.80;1.00;;;;;;5126085;27;20047;-74
2023/09/07 00:48:16;;;;;;;0.40;0.30;;;16.90;1.00;;;;;;5126765;27;20040;-74
2023/09/07 00:50:42;;;;;;;0.15;0.15;;;16.90;1.00;;;;;;5129715;27;20437;-74
2023/09/07 00:53:10;;;;;;;1.00;0.75;;;17.00;99.90;;;;;;5128897;27;20099;-74
2023/09/07 00:55:36;;;;;;;0.68;0.65;;;17.00;99.90;;;;;;5122880;27;20522;-75
2023/09/07 00:58:04;;;;;;;0.22;0.22;;;17.10;99.90;;;;;;5126214;27;20039;-75
2023/09/07 01:00:30;;;;;;;1.13;0.30;;;17.00;99.90;;;;;;5119031;27;20089;-74
2023/09/07 01:02:56;;;;;;;0.43;0.10;;;17.00;99.90;;;;;;5125062;27;20507;-74
2023/09/07 01:05:28;;;;;;;0.35;0.30;;;16.90;99.90;;;;;;5121907;27;20065;-74
2023/09/07 01:08:17;;;;;;;0.20;0.13;;;16.90;99.90;;;;;;5117468;27;20040;-74
2023/09/07 01:10:43;;;;;;;0.32;0.28;;;16.80;99.90;;;;;;5126778;27;20081;-74
2023/09/07 01:13:08;;;;;;;0.35;0.25;;;16.70;99.90;;;;;;5123514;27;20035;-75
2023/09/07 01:15:34;;;;;;;0.22;0.20;;;16.70;1.00;;;;;;5127489;27;20039;-74
2023/09/07 01:18:00;;;;;;;0.30;0.30;;;16.70;1.00;;;;;;5099146;28;20043;-75
2023/09/07 01:20:26;;;;;;;0.43;0.35;;;16.50;1.00;;;;;;5119942;27;20036;-75
2023/09/07 01:22:52;;;;;;;0.65;0.60;;;16.40;1.00;;;;;;5126395;27;20097;-74
2023/09/07 01:25:18;;;;;;;0.28;0.28;;;16.30;1.00;;;;;;5128419;27;20035;-74
2023/09/07 01:27:45;;;;;;;0.10;0.10;;;16.20;1.00;;;;;;5128821;27;20176;-75
2023/09/07 01:30:11;;;;;;;0.30;0.28;;;16.20;67.60;;;;;;5128007;27;20370;-73
2023/09/07 01:32:36;;;;;;;0.70;0.50;;;16.10;48.70;;;;;;5121914;27;20126;-75
2023/09/07 01:35:06;;;;;;;0.25;0.17;;;16.10;99.90;;;;;;5124213;27;20512;-75
2023/09/07 01:37:32;;;;;;;0.10;0.10;;;16.00;72.10;;;;;;5128047;27;20035;-74
2023/09/07 01:39:57;;;;;;;0.30;0.30;;;16.00;98.00;;;;;;5128234;27;20031;-74
2023/09/07 01:42:23;;;;;;;0.30;0.30;;;15.90;99.90;;;;;;5116775;27;20031;-74
2023/09/07 01:44:49;;;;;;;0.52;0.43;;;15.80;99.90;;;;;;5122644;27;20066;-74
2023/09/07 01:47:15;;;;;;;4.15;0.65;;;15.70;99.90;;;;;;5128292;27;20039;-74
2023/09/07 01:49:40;;;;;;;0.45;0.28;;;15.60;99.90;;;;;;5128373;27;20035;-74
2023/09/07 01:52:06;;;;;;;0.57;0.32;;;15.60;99.90;;;;;;5126301;27;20046;-74
2023/09/07 01:54:32;;;;;;;0.38;0.38;;;15.50;99.90;;;;;;5126427;27;20400;-73
2023/09/07 01:56:58;;;;;;;1.35;0.65;;;15.50;99.90;;;;;;5127826;27;20043;-74
2023/09/07 01:59:23;;;;;;;0.65;0.43;;;15.50;99.90;;;;;;5127600;27;20035;-74
2023/09/07 02:01:49;;;;;;;0.00;0.00;;;15.50;99.90;;;;;;5127648;27;20151;-74
2023/09/07 02:04:14;;;;;;;0.68;0.57;;;15.40;99.90;;;;;;5133828;27;20047;-74
2023/09/07 02:06:40;;;;;;;0.95;0.93;;;15.30;99.90;;;;;;5125766;27;20039;-74
2023/09/07 02:09:06;;;;;;;0.85;0.45;;;15.30;99.90;;;;;;5124285;27;20079;-74
2023/09/07 02:11:31;;;;;;;0.20;0.20;;;15.20;99.90;;;;;;5130413;27;20103;-74
2023/09/07 02:13:57;;;;;;;0.47;0.28;;;15.10;99.90;;;;;;5124402;27;20522;-74
2023/09/07 02:16:22;;;;;;;0.47;0.47;;;15.00;99.90;;;;;;5122233;27;20469;-74
2023/09/07 02:18:50;;;;;;;0.68;0.65;;;15.00;99.90;;;;;;5134787;27;20047;-74
2023/09/07 02:21:16;;;;;;;0.20;0.20;;;14.90;99.90;;;;;;5123983;27;20054;-73
2023/09/07 02:23:41;;;;;;;1.30;0.55;;;14.90;99.90;;;;;;5122480;27;20043;-73
2023/09/07 02:26:07;;;;;;;1.85;0.98;;;14.90;99.90;;;;;;5109176;27;20130;-73
2023/09/07 02:28:33;;;;;;;0.20;0.20;;;14.80;99.90;;;;;;5127299;27;20365;-73
2023/09/07 02:31:06;;;;;;;0.30;0.30;;;14.70;99.90;;;;;;5126874;27;20035;-72
2023/09/07 02:33:32;;;;;;;1.55;1.33;;;14.70;99.90;;;;;;5122267;27;20088;-72
2023/09/07 02:35:58;;;;;;;0.20;0.10;;;14.70;99.90;;;;;;5124293;27;20126;-73
2023/09/07 02:38:24;;;;;;;1.05;0.85;;;14.70;99.90;;;;;;5115948;27;20044;-73
2023/09/07 02:40:49;;;;;;;0.15;0.15;;;14.80;99.90;;;;;;5124151;27;20085;-73
2023/09/07 02:43:16;;;;;;;0.40;0.38;;;14.60;99.90;;;;;;5125194;27;20053;-74
2023/09/07 02:45:41;;;;;;;0.80;0.47;;;14.60;99.90;;;;;;5122447;27;20082;-74
2023/09/07 02:48:07;;;;;;;1.60;0.52;;;14.60;99.90;;;;;;5128887;27;20077;-74
2023/09/07 02:50:34;;;;;;;1.42;0.73;;;14.60;99.90;;;;;;5123748;27;20032;-74
2023/09/07 02:53:00;;;;;;;0.82;0.82;;;14.50;99.90;;;;;;5125551;27;20103;-72
2023/09/07 02:55:27;;;;;;;0.95;0.73;;;14.50;99.90;;;;;;5125325;27;20046;-73
2023/09/07 02:57:53;;;;;;;1.65;0.75;;;14.50;99.90;;;;;;5123342;27;20499;-73
2023/09/07 03:00:19;;;;;;;0.10;0.00;;;14.40;99.90;;;;;;5123298;27;20389;-73
2023/09/07 03:02:45;;;;;;;1.38;1.27;;;14.40;99.90;;;;;;5126988;27;20039;-73
2023/09/07 03:05:10;;;;;;;1.65;0.75;;;14.40;99.90;;;;;;5118392;27;20140;-74
2023/09/07 03:07:39;;;;;;;1.50;0.85;;;14.40;99.90;;;;;;5125483;28;20039;-74
2023/09/07 03:10:05;;;;;;;1.65;0.95;;;14.40;99.90;;;;;;5123358;28;20568;-73
2023/09/07 03:12:30;;;;;;;0.28;0.28;;;14.40;99.90;;;;;;5122393;28;20043;-73
2023/09/07 03:14:56;;;;;;;1.73;0.55;;;14.30;99.90;;;;;;5126559;28;20077;-73
2023/09/07 03:17:22;;;;;;;0.00;0.00;;;14.30;99.90;;;;;;5123256;27;20075;-73
2023/09/07 03:19:47;;;;;;;0.63;0.60;;;14.20;99.90;;;;;;5123899;28;20042;-72
2023/09/07 03:22:13;;;;;;;0.03;0.03;;;14.10;99.90;;;;;;5119035;28;20040;-72
2023/09/07 03:24:39;;;;;;;2.38;1.00;;;14.10;99.90;;;;;;5109135;28;20126;-72
2023/09/07 03:27:05;;;;;;;0.10;0.10;;;14.20;99.90;;;;;;5125190;28;20050;-74
2023/09/07 03:29:33;;;;;;;0.30;0.30;;;14.10;99.90;;;;;;5126661;28;20028;-73
2023/09/07 03:31:59;;;;;;;0.63;0.63;;;14.10;99.90;;;;;;5124382;27;20043;-73
2023/09/07 03:34:25;;;;;;;0.55;0.38;;;14.10;99.90;;;;;;5131651;27;20136;-73
2023/09/07 03:36:51;;;;;;;1.38;1.13;;;14.10;99.90;;;;;;5126439;28;20495;-75
2023/09/07 03:39:18;;;;;;;3.42;0.65;;;14.10;99.90;;;;;;5126566;27;20042;-73
2023/09/07 03:41:44;;;;;;;0.43;0.35;;;14.10;99.90;;;;;;5115707;27;20050;-73
2023/09/07 03:44:10;;;;;;;0.65;0.43;;;14.10;99.90;;;;;;5120909;28;20086;-73
2023/09/07 03:46:36;;;;;;;1.52;0.88;;;14.10;99.90;;;;;;5126142;27;20066;-73
2023/09/07 03:49:01;;;;;;;0.77;0.50;;;14.10;99.90;;;;;;5121608;28;20032;-73
2023/09/07 03:51:27;;;;;;;0.95;0.47;;;14.10;99.90;;;;;;5122604;28;20047;-73
2023/09/07 03:53:53;;;;;;;1.27;0.13;;;14.10;99.90;;;;;;5116645;28;20039;-74
2023/09/07 03:56:18;;;;;;;0.28;0.20;;;14.00;99.90;;;;;;5131703;28;20434;-74
2023/09/07 03:58:44;;;;;;;0.98;0.73;;;14.10;99.90;;;;;;5120928;28;20028;-74
2023/09/07 04:01:09;;;;;;;0.73;0.57;;;14.10;99.90;;;;;;5115824;28;20108;-74
2023/09/07 04:03:35;;;;;;;2.25;0.28;;;14.00;99.90;;;;;;5116144;28;20039;-74
2023/09/07 04:06:01;;;;;;;0.15;0.10;;;14.00;99.90;;;;;;5127675;28;20035;-74
2023/09/07 04:08:26;;;;;;;0.60;0.38;;;14.00;99.90;;;;;;5126175;27;20504;-74
2023/09/07 04:10:52;;;;;;;0.63;0.52;;;13.90;99.90;;;;;;5122943;28;20031;-74
2023/09/07 04:13:18;;;;;;;0.13;0.13;;;13.90;99.90;;;;;;5130251;27;20039;-74
2023/09/07 04:15:45;;;;;;;0.00;0.00;;;13.90;99.90;;;;;;5120152;27;20401;-74
2023/09/07 04:18:12;;;;;;;0.40;0.30;;;13.90;99.90;;;;;;5129527;27;20514;-74
2023/09/07 04:20:39;;;;;;;1.00;0.60;;;13.90;99.90;;;;;;5130173;27;20132;-74
2023/09/07 04:23:05;;;;;;;2.88;0.77;;;13.90;99.90;;;;;;5126848;27;20043;-74
2023/09/07 04:25:31;;;;;;;0.30;0.30;;;13.80;99.90;;;;;;5125407;27;20439;-74
2023/09/07 04:27:57;;;;;;;3.92;1.02;;;13.80;99.90;;;;;;5126164;27;20096;-74
2023/09/07 04:30:23;;;;;;;3.75;1.83;;;14.00;99.90;;;;;;5129534;27;20032;-75
2023/09/07 04:32:49;;;;;;;1.50;0.60;;;13.80;99.90;;;;;;5121628;27;20392;-72
2023/09/07 04:35:14;;;;;;;2.08;0.90;;;13.90;99.90;;;;;;5120584;27;20377;-73
2023/09/07 04:37:43;;;;;;;0.57;0.47;;;13.90;99.90;;;;;;5126769;27;20462;-73
2023/09/07 04:40:09;;;;;;;0.75;0.65;;;14.00;99.90;;;;;;5127022;27;20050;-73
2023/09/07 04:42:35;;;;;;;1.65;0.68;;;13.90;99.90;;;;;;5128502;27;20519;-73
2023/09/07 04:45:01;;;;;;;0.63;0.63;;;14.00;99.90;;;;;;5128779;27;20027;-73
2023/09/07 04:47:27;;;;;;;0.65;0.45;;;14.10;99.90;;;;;;5125021;27;20514;-73
2023/09/07 04:49:52;;;;;;;0.10;0.10;;;14.30;99.90;;;;;;5122508;27;20032;-73
2023/09/07 04:52:18;;;;;;;0.68;0.38;;;14.10;99.90;;;;;;5127500;27;20047;-73
2023/09/07 04:54:44;;;;;;;0.63;0.57;;;14.10;99.90;;;;;;5125227;27;20047;-74
2023/09/07 04:57:11;;;;;;;0.17;0.17;;;14.10;99.90;;;;;;5124422;27;20454;-74
2023/09/07 04:59:36;;;;;;;0.13;0.13;;;14.10;99.90;;;;;;5126226;27;20191;-73
2023/09/07 05:02:02;;;;;;;1.25;0.85;;;14.10;99.90;;;;;;5125187;27;20067;-74
2023/09/07 05:04:29;;;;;;;0.40;0.40;;;14.20;99.90;;;;;;5125040;27;20043;-74
2023/09/07 05:06:56;;;;;;;3.15;0.90;;;14.50;99.90;;;;;;5133508;27;20122;-73
2023/09/07 05:09:23;;;;;;;1.83;0.30;;;14.30;99.90;;;;;;5128383;27;20039;-74
2023/09/07 05:11:49;;;;;;;1.48;0.63;;;14.30;99.90;;;;;;5125814;27;20043;-73
2023/09/07 05:14:14;;;;;;;0.85;0.68;;;14.40;99.90;;;;;;5130617;27;20045;-73
2023/09/07 05:16:43;;;;;;;0.93;0.85;;;14.40;99.90;;;;;;5115419;27;20063;-74
2023/09/07 05:19:09;;;;;;;10.63;2.88;;;14.40;99.90;;;;;;5113925;27;20393;-74
2023/09/07 05:21:35;;;;;;;0.08;0.08;;;14.50;99.90;;;;;;5113618;27;20095;-74
2023/09/07 05:24:00;;;;;;;1.05;0.95;;;14.50;99.90;;;;;;5110713;27;20499;-74
2023/09/07 05:26:26;;;;;;;0.85;0.47;;;14.50;99.90;;;;;;5110453;27;20138;-73
2023/09/07 05:28:52;;;;;;;0.30;0.30;;;14.50;99.90;;;;;;5108943;27;20039;-73
2023/09/07 05:31:17;;;;;;;0.08;0.08;;;14.60;99.90;;;;;;5126558;27;20038;-73
2023/09/07 05:33:43;;;;;;;1.58;0.85;;;14.70;99.90;;;;;;5126100;27;20480;-73
2023/09/07 05:36:09;;;;;;;0.40;0.40;;;14.70;99.90;;;;;;5123581;27;20056;-74
2023/09/07 05:38:34;;;;;;;0.88;0.77;;;14.90;99.90;;;;;;5125977;27;20035;-73
2023/09/07 05:41:00;;;;;;;0.80;0.38;;;14.90;99.90;;;;;;5123291;27;20039;-74
2023/09/07 05:43:26;;;;;;;0.47;0.47;;;15.00;99.90;;;;;;5118511;27;20571;-74
2023/09/07 05:45:51;;;;;;;0.65;0.60;;;15.10;29.00;;;;;;5120014;27;20389;-73
2023/09/07 05:48:17;;;;;;;0.40;0.40;;;15.10;1.00;;;;;;5121087;27;20043;-73
2023/09/07 05:50:43;;;;;;;0.43;0.40;;;15.30;99.90;;;;;;5123022;27;20101;-74
2023/09/07 05:53:09;;;;;;;0.63;0.45;;;15.40;99.90;;;;;;5120398;27;20449;-74
2023/09/07 05:55:35;;;;;;;1.23;1.13;;;15.40;78.30;;;;;;5119855;27;20043;-74
2023/09/07 05:58:05;;;;;;;0.85;0.73;;;15.60;99.90;;;;;;5104239;27;20032;-74
2023/09/07 06:00:31;;;;;;;1.10;0.95;;;15.70;1.00;;;;;;5107135;27;20059;-74
2023/09/07 06:02:56;;;;;;;0.28;0.17;;;15.70;99.90;;;;;;5107571;27;20408;-74
2023/09/07 06:05:22;;;;;;;0.82;0.35;;;15.70;99.90;;;;;;5122818;27;20114;-74
2023/09/07 06:07:48;;;;;;;0.55;0.55;;;15.80;99.90;;;;;;5107028;27;20043;-74
2023/09/07 06:10:14;;;;;;;1.20;1.10;;;16.00;1.00;;;;;;5107633;27;20046;-74
2023/09/07 06:12:41;;;;;;;0.93;0.65;;;16.10;66.30;;;;;;5120273;27;20428;-74
2023/09/07 06:15:07;;;;;;;0.98;0.80;;;16.50;49.30;;;;;;5113453;27;20043;-74
2023/09/07 06:17:33;;;;;;;0.55;0.55;;;17.40;99.90;;;;;;5107363;27;20040;-74
2023/09/07 06:19:58;;;;;;;1.48;0.85;;;18.10;99.90;;;;;;5115799;27;20101;-74
2023/09/07 06:22:24;;;;;;;0.43;0.40;;;18.80;1.00;;;;;;5114068;27;20507;-74
2023/09/07 06:24:50;;;;;;;0.40;0.40;;;19.30;1.00;;;;;;5121749;27;20046;-74
2023/09/07 06:27:15;;;;;;;0.88;0.65;;;19.80;99.90;;;;;;5111649;27;20483;-74
2023/09/07 06:29:41;;;;;;;0.10;0.10;;;20.40;99.90;;;;;;5116357;27;20581;-74
2023/09/07 06:32:07;;;;;;;2.35;0.95;;;20.70;99.90;;;;;;5119477;27;20084;-75
2023/09/07 06:34:32;;;;;;;0.82;0.75;;;21.00;99.90;;;;;;5117677;27;20484;-75
2023/09/07 06:36:58;;;;;;;0.95;0.60;;;21.30;99.90;;;;;;5118503;27;20443;-75
2023/09/07 06:39:23;;;;;;;2.70;0.75;;;21.20;99.90;;;;;;5121920;27;20035;-75
2023/09/07 06:41:49;;;;;;;1.25;1.00;;;21.50;99.90;;;;;;5121968;27;20039;-75
2023/09/07 06:44:15;;;;;;;2.40;1.10;;;21.40;99.90;;;;;;5113515;27;20051;-75
2023/09/07 06:46:40;;;;;;;1.48;1.05;;;21.60;99.90;;;;;;5122094;27;20152;-75
2023/09/07 06:49:06;;;;;;;0.85;0.68;;;21.80;99.90;;;;;;5121986;27;20117;-75
2023/09/07 06:51:32;;;;;;;0.30;0.30;;;22.10;99.90;;;;;;5118649;27;20420;-75
2023/09/07 06:53:59;;;;;;;0.73;0.55;;;22.00;99.90;;;;;;5117856;27;20130;-75
2023/09/07 06:56:26;;;;;;;0.85;0.85;;;21.70;99.90;;;;;;5118257;27;20445;-75
2023/09/07 06:58:52;;;;;;;1.55;1.05;;;22.20;99.90;;;;;;5120209;27;20078;-75
2023/09/07 07:01:18;;;;;;;0.47;0.47;;;22.30;99.90;;;;;;5120060;27;20159;-75
2023/09/07 07:03:43;;;;;;;2.92;1.25;;;23.20;99.90;;;;;;5117023;27;20043;-75
2023/09/07 07:06:09;;;;;;;1.73;0.68;;;23.20;99.90;;;;;;5117594;27;20042;-75
2023/09/07 07:08:35;;;;;;;1.73;0.75;;;23.30;99.90;;;;;;5118561;27;20047;-75
2023/09/07 07:11:00;;;;;;;0.70;0.68;;;22.90;99.90;;;;;;5122011;28;20039;-75
2023/09/07 07:13:26;;;;;;;6.68;0.85;;;22.00;99.90;;;;;;5121638;28;20092;-75
2023/09/07 07:15:51;;;;;;;0.43;0.40;;;21.40;99.90;;;;;;5119241;28;20486;-75
2023/09/07 07:18:17;;;;;;;0.32;0.32;;;20.90;99.90;;;;;;5118415;28;20051;-75
2023/09/07 07:20:44;;;;;;;1.00;0.75;;;20.50;99.90;;;;;;5118985;28;20082;-74
2023/09/07 07:23:10;;;;;;;0.98;0.50;;;20.40;99.90;;;;;;5121647;27;20054;-74
2023/09/07 07:25:37;;;;;;;0.80;0.68;;;20.20;99.90;;;;;;5121635;27;20047;-75
2023/09/07 07:28:05;;;;;;;0.45;0.38;;;20.10;99.90;;;;;;5119479;27;20527;-74
2023/09/07 07:30:36;;;;;;;0.98;0.65;;;20.10;99.90;;;;;;5118338;28;20047;-75
2023/09/07 07:33:03;;;;;;;5.95;0.88;;;20.10;99.90;;;;;;5120041;28;20039;-74
2023/09/07 07:35:29;;;;;;;0.88;0.70;;;20.10;99.90;;;;;;5121788;27;20093;-74
2023/09/07 07:37:55;;;;;;;0.65;0.50;;;20.10;99.90;;;;;;5123894;27;20119;-74
2023/09/07 07:40:21;;;;;;;1.42;0.80;;;20.20;99.90;;;;;;5120886;28;20122;-74
2023/09/07 07:42:47;;;;;;;0.65;0.52;;;20.20;99.90;;;;;;5121126;28;20089;-74
2023/09/07 07:45:13;;;;;;;0.28;0.28;;;20.30;99.90;;;;;;5122099;27;20402;-74
2023/09/07 07:47:40;;;;;;;0.20;0.20;;;20.40;99.90;;;;;;5126709;27;20039;-74
2023/09/07 07:50:06;;;;;;;0.85;0.77;;;20.40;99.90;;;;;;5128460;27;20536;-74
2023/09/07 07:52:31;;;;;;;0.57;0.57;;;20.60;99.90;;;;;;5125026;27;20497;-74
2023/09/07 07:54:57;;;;;;;1.48;1.27;;;20.70;99.90;;;;;;5125197;27;20051;-74
2023/09/07 07:57:23;;;;;;;0.30;0.28;;;20.90;99.90;;;;;;5124879;27;20043;-74
2023/09/07 07:59:48;;;;;;;0.63;0.55;;;21.10;99.90;;;;;;5128426;27;20031;-74
2023/09/07 08:02:14;;;;;;;0.80;0.50;;;21.70;99.90;;;;;;5128593;27;20473;-74
2023/09/07 08:04:40;;;;;;;1.88;1.05;;;22.80;99.90;;;;;;5125776;27;20046;-74
2023/09/07 08:07:06;;;;;;;1.58;0.98;;;23.60;99.90;;;;;;5125194;27;20035;-74
2023/09/07 08:09:33;;;;;;;6.80;1.38;;;24.30;99.90;;;;;;5125439;27;20054;-74
2023/09/07 08:12:02;;;;;;;1.23;0.90;;;24.80;99.90;;;;;;5128074;27;20042;-74
2023/09/07 08:14:28;;;;;;;1.33;1.05;;;25.20;99.90;;;;;;5128084;27;20084;-74
2023/09/07 08:16:54;;;;;;;1.20;0.95;;;25.50;99.90;;;;;;5125518;27;20043;-74
2023/09/07 08:19:19;;;;;;;0.52;0.52;;;25.60;95.30;;;;;;5124746;27;20054;-74
2023/09/07 08:21:46;;;;;;;0.65;0.52;;;25.70;74.40;;;;;;5125364;27;20040;-75
2023/09/07 08:24:12;;;;;;;0.55;0.50;;;26.00;81.70;;;;;;5127975;27;20039;-74
2023/09/07 08:26:37;;;;;;;0.40;0.40;;;26.40;92.70;;;;;;5127818;27;20050;-74
2023/09/07 08:29:08;;;;;;;0.50;0.38;;;26.70;97.80;;;;;;5125243;27;20035;-74
2023/09/07 08:31:34;;;;;;;0.52;0.52;;;26.90;92.20;;;;;;5125106;27;20035;-75
2023/09/07 08:34:05;;;;;;;0.73;0.22;;;27.40;95.90;;;;;;5125950;27;20038;-74
2023/09/07 08:36:33;;;;;;;1.40;0.95;;;27.60;86.20;;;;;;5127939;27;20087;-74
2023/09/07 08:39:07;;;;;;;2.00;1.00;;;27.40;77.80;;;;;;5127856;27;20035;-74
2023/09/07 08:41:41;;;;;;;1.02;0.57;;;27.90;72.50;;;;;;5127570;27;20530;-73
2023/09/07 08:44:09;;;;;;;0.95;0.77;;;28.00;56.00;;;;;;5126868;27;20039;-73
2023/09/07 08:46:36;;;;;;;0.80;0.40;;;28.30;71.40;;;;;;5124722;27;20040;-73
2023/09/07 08:49:03;;;;;;;0.70;0.52;;;28.80;78.50;;;;;;5124589;27;20028;-73
2023/09/07 08:51:31;;;;;;;0.75;0.50;;;28.70;14.30;;;;;;5126902;27;20130;-74
2023/09/07 08:53:57;;;;;;;1.60;0.55;;;29.10;10.50;;;;;;5120685;27;20083;-74
2023/09/07 08:56:24;;;;;;;1.00;0.68;;;29.10;5.70;;;;;;5125307;27;20519;-74
2023/09/07 08:58:50;;;;;;;0.50;0.50;;;28.50;1.00;;;;;;5126767;27;20081;-73
2023/09/07 09:01:21;;;;;;;1.50;1.00;;;28.60;1.00;;;;;;5127312;27;20071;-73
2023/09/07 09:03:48;;;;;;;1.08;0.68;;;28.50;1.00;;;;;;5115764;27;20036;-73
2023/09/07 09:06:16;;;;;;;0.63;0.63;;;28.70;1.00;;;;;;5123801;27;20477;-73
2023/09/07 09:08:43;;;;;;;0.75;0.60;;;29.20;1.00;;;;;;5125688;27;20043;-73
2023/09/07 09:11:09;;;;;;;0.88;0.55;;;28.90;1.00;;;;;;5127054;27;20404;-73
2023/09/07 09:13:34;;;;;;;0.55;0.52;;;28.60;1.00;;;;;;5126362;27;20078;-73
2023/09/07 09:16:03;;;;;;;2.45;0.68;;;29.10;1.00;;;;;;5123576;27;20078;-73
2023/09/07 09:18:29;;;;;;;1.48;0.60;;;28.80;1.00;;;;;;5123531;27;20035;-73
2023/09/07 09:20:55;;;;;;;2.25;1.15;;;29.20;1.00;;;;;;5126076;27;20036;-73
2023/09/07 09:23:21;;;;;;;1.38;0.77;;;28.90;1.00;;;;;;5126437;27;20046;-73
2023/09/07 09:25:50;;;;;;;1.27;0.57;;;28.90;1.00;;;;;;5125996;27;20388;-73
2023/09/07 09:28:16;;;;;;;0.63;0.35;;;28.60;1.00;;;;;;5123378;27;20039;-73
2023/09/07 09:30:45;;;;;;;0.38;0.38;;;29.20;1.00;;;;;;5123510;27;20161;-74
2023/09/07 09:33:10;;;;;;;0.65;0.60;;;29.60;1.00;;;;;;5126113;27;20092;-74
2023/09/07 09:35:38;;;;;;;1.27;0.93;;;29.30;1.00;;;;;;5125292;27;20039;-74
2023/09/07 09:38:04;;;;;;;1.17;0.70;;;29.10;1.00;;;;;;5122109;27;20039;-74
2023/09/07 09:40:36;;;;;;;2.65;0.88;;;28.70;1.00;;;;;;5120198;27;20067;-74
2023/09/07 09:43:06;;;;;;;0.63;0.43;;;29.00;1.00;;;;;;5120364;27;20439;-73
2023/09/07 09:45:33;;;;;;;0.47;0.38;;;29.10;1.00;;;;;;5123445;27;20051;-73
2023/09/07 09:48:00;;;;;;;0.95;0.73;;;29.20;1.00;;;;;;5123234;27;20083;-74
2023/09/07 09:50:26;;;;;;;0.40;0.32;;;29.60;1.00;;;;;;5120627;27;20057;-74
2023/09/07 09:52:56;;;;;;;0.22;0.22;;;29.60;1.00;;;;;;5125840;27;20134;-74
2023/09/07 09:55:22;;;;;;;1.77;0.88;;;29.30;1.00;;;;;;5121813;27;20039;-74
2023/09/07 09:57:48;;;;;;;0.10;0.10;;;29.10;1.00;;;;;;5119635;27;20812;-74
2023/09/07 10:02:57;;;;;;;0.40;0.35;;;28.20;99.90;;;;;;5110910;27;20051;-74
2023/09/07 10:05:24;;;;;;;0.45;0.43;;;28.10;99.90;;;;;;5119805;27;20055;-74
2023/09/07 10:07:50;;;;;;;0.28;0.22;;;27.90;99.90;;;;;;5121314;27;20093;-73
2023/09/07 10:10:18;;;;;;;1.52;0.73;;;27.80;99.90;;;;;;5121657;27;20057;-74
2023/09/07 10:12:45;;;;;;;0.95;0.80;;;28.00;99.90;;;;;;5120739;27;20039;-74
2023/09/07 10:15:25;;;;;;;0.80;0.57;;;27.90;99.90;;;;;;5119378;27;20039;-74
2023/09/07 10:18:20;;;;;;;1.98;0.80;;;28.00;99.90;;;;;;5119195;27;20544;-74
2023/09/07 10:20:58;;;;;;;0.30;0.20;;;28.00;99.90;;;;;;5120490;27;20079;-74
2023/09/07 10:23:40;;;;;;;2.42;0.73;;;28.10;99.90;;;;;;5122329;27;20122;-74
2023/09/07 10:26:23;;;;;;;0.65;0.43;;;28.10;99.90;;;;;;5110750;27;20493;-75
2023/09/07 10:29:00;;;;;;;0.40;0.30;;;27.90;99.90;;;;;;5119708;27;20393;-75
2023/09/07 10:31:26;;;;;;;0.68;0.68;;;28.10;99.90;;;;;;5122771;27;20703;-75
2023/09/07 10:33:52;;;;;;;1.00;0.57;;;28.30;99.90;;;;;;5124793;27;20056;-74
2023/09/07 10:36:26;;;;;;;2.55;0.52;;;28.40;99.90;;;;;;5122257;27;20576;-74
2023/09/07 10:38:55;;;;;;;1.08;0.80;;;28.40;99.90;;;;;;5122179;27;20046;-74
2023/09/07 10:41:20;;;;;;;0.20;0.20;;;28.30;99.90;;;;;;5116680;27;20035;-73
2023/09/07 10:43:51;;;;;;;1.40;0.73;;;28.30;99.90;;;;;;5125853;27;20042;-73
2023/09/07 10:46:21;;;;;;;1.33;0.45;;;28.60;99.90;;;;;;5124394;27;20045;-74
2023/09/07 10:48:51;;;;;;;0.32;0.32;;;28.60;99.90;;;;;;5119029;27;20043;-73
2023/09/07 10:51:18;;;;;;;0.57;0.40;;;28.50;99.90;;;;;;5123880;27;20508;-74
2023/09/07 10:53:43;;;;;;;0.70;0.47;;;28.80;99.90;;;;;;5122320;27;20039;-74
2023/09/07 10:56:09;;;;;;;1.05;0.80;;;28.80;99.90;;;;;;5122524;27;20408;-74
2023/09/07 10:58:41;;;;;;;0.30;0.30;;;29.00;99.90;;;;;;5124846;27;20035;-74
2023/09/07 11:01:07;;;;;;;28.90;0.75;;;29.40;99.90;;;;;;5124705;27;20039;-74
2023/09/07 11:03:33;;;;;;;0.30;0.30;;;29.50;99.90;;;;;;5122513;27;20142;-74
2023/09/07 11:06:03;;;;;;;2.08;0.77;;;29.60;99.90;;;;;;5121080;27;20493;-73
2023/09/07 11:08:29;;;;;;;0.55;0.20;;;29.40;99.90;;;;;;5121224;27;20039;-74
2023/09/07 11:10:55;;;;;;;2.20;0.82;;;29.60;99.90;;;;;;5125345;27;20042;-74
2023/09/07 11:13:23;;;;;;;0.40;0.25;;;29.80;99.90;;;;;;5126752;27;20052;-74
2023/09/07 11:15:49;;;;;;;0.32;0.28;;;29.90;99.90;;;;;;5112341;28;20055;-74
2023/09/07 11:18:21;;;;;;;0.70;0.20;;;29.90;99.90;;;;;;5122394;28;20065;-74
2023/09/07 11:20:47;;;;;;;2.17;1.13;;;30.00;99.90;;;;;;5123540;27;20374;-74
2023/09/07 11:23:12;;;;;;;0.00;0.00;;;30.30;99.90;;;;;;5129628;27;20091;-73
2023/09/07 11:25:39;;;;;;;0.57;0.55;;;30.30;99.90;;;;;;5129499;27;20046;-73
2023/09/07 11:28:05;;;;;;;0.40;0.38;;;29.90;99.90;;;;;;5126935;27;20043;-74
2023/09/07 11:30:35;;;;;;;0.70;0.47;;;29.90;99.90;;;;;;5126321;27;20043;-74
2023/09/07 11:33:09;;;;;;;1.02;0.85;;;29.80;99.90;;;;;;5127539;27;20060;-73
2023/09/07 11:35:35;;;;;;;0.30;0.30;;;29.90;99.90;;;;;;5129516;27;20039;-73
2023/09/07 11:38:03;;;;;;;0.45;0.45;;;30.20;99.90;;;;;;5128646;27;20159;-74
2023/09/07 11:40:29;;;;;;;0.80;0.60;;;30.20;99.90;;;;;;5125941;27;20035;-73
2023/09/07 11:42:55;;;;;;;0.85;0.60;;;30.30;99.90;;;;;;5125794;27;20480;-74
2023/09/07 11:45:21;;;;;;;0.05;0.05;;;30.70;99.90;;;;;;5128491;27;20032;-73
2023/09/07 11:47:47;;;;;;;4.22;0.63;;;30.90;99.90;;;;;;5129291;27;20401;-73
2023/09/07 11:50:12;;;;;;;4.38;0.55;;;31.10;99.90;;;;;;5128567;27;20035;-73
2023/09/07 11:52:38;;;;;;;0.25;0.25;;;31.50;99.90;;;;;;5125576;27;20100;-73
2023/09/07 11:55:04;;;;;;;0.32;0.20;;;31.90;99.90;;;;;;5125657;27;20406;-74
2023/09/07 11:57:30;;;;;;;0.75;0.57;;;32.10;99.90;;;;;;5125495;27;20047;-73
2023/09/07 11:59:56;;;;;;;3.92;0.40;;;32.10;99.90;;;;;;5125652;27;20039;-73
2023/09/07 12:02:22;;;;;;;0.30;0.28;;;32.40;99.90;;;;;;5124990;27;20068;-74
2023/09/07 12:04:48;;;;;;;0.13;0.13;;;32.50;99.90;;;;;;5129187;27;20067;-74
2023/09/07 12:07:14;;;;;;;0.60;0.45;;;32.20;99.90;;;;;;5129089;27;20050;-74
2023/09/07 12:09:40;;;;;;;0.40;0.32;;;32.60;99.90;;;;;;5127088;27;20051;-73
2023/09/07 12:12:06;;;;;;;0.55;0.55;;;32.50;99.90;;;;;;5125513;27;20377;-74
2023/09/07 12:14:31;;;;;;;0.50;0.30;;;32.40;99.90;;;;;;5125532;27;20043;-73
2023/09/07 12:16:57;;;;;;;6.00;0.65;;;32.30;99.90;;;;;;5128265;27;20127;-73
2023/09/07 12:19:23;;;;;;;0.50;0.40;;;32.10;99.90;;;;;;5128515;27;20035;-73
2023/09/07 12:21:48;;;;;;;0.45;0.32;;;31.90;99.90;;;;;;5127082;27;20063;-73
2023/09/07 12:24:14;;;;;;;0.85;0.65;;;32.00;99.90;;;;;;5125375;27;20404;-74
2023/09/07 12:26:39;;;;;;;0.28;0.28;;;32.60;99.90;;;;;;5125304;27;20036;-74
2023/09/07 12:29:07;;;;;;;0.88;0.22;;;32.50;99.90;;;;;;5127919;27;20043;-74
2023/09/07 12:31:33;;;;;;;0.25;0.20;;;32.90;99.90;;;;;;5125940;27;20072;-74
2023/09/07 12:33:58;;;;;;;0.57;0.52;;;32.80;99.90;;;;;;5120160;27;20109;-74
2023/09/07 12:36:24;;;;;;;0.52;0.45;;;33.00;99.90;;;;;;5111023;27;20092;-74
2023/09/07 12:38:50;;;;;;;0.20;0.20;;;33.20;99.90;;;;;;5120017;27;20028;-74
2023/09/07 12:41:15;;;;;;;4.75;1.30;;;32.80;99.90;;;;;;5126132;27;20043;-74
2023/09/07 12:43:42;;;;;;;0.28;0.22;;;32.50;99.90;;;;;;5119966;27;20062;-74
2023/09/07 12:46:08;;;;;;;0.65;0.40;;;32.40;99.90;;;;;;5127650;27;20099;-73
2023/09/07 12:48:35;;;;;;;1.55;0.85;;;32.40;99.90;;;;;;5124856;27;20039;-73